Time;durP1;ratioP1;P1;durP2;ratioP2;P2;SDS_P1;SDS_P2;PMS_P1;PMS_P2;Temp;Humidity;BMP_temperature;BMP_pressure;BME280_temperature;BME280_humidity;BME280_pressure;Samples;Min_cycle;Max_cycle;Signal;HPM_P1;HPM_P2
2022/10/12 00:00:35;;;;;;;19.95;9.88;;;9.00;99.90;;;;;;5042389;28;20041;-69
2022/10/12 00:03:01;;;;;;;19.27;10.93;;;9.00;99.90;;;;;;5041958;28;20358;-68
2022/10/12 00:05:27;;;;;;;15.13;10.23;;;8.90;99.90;;;;;;5041503;28;20041;-69
2022/10/12 00:07:52;;;;;;;23.92;9.85;;;8.80;99.90;;;;;;5041385;28;20028;-69
2022/10/12 00:10:18;;;;;;;21.70;11.48;;;8.80;99.90;;;;;;5040180;28;20032;-69
2022/10/12 00:12:43;;;;;;;20.38;11.93;;;8.80;99.90;;;;;;5049640;28;20105;-69
2022/10/12 00:15:10;;;;;;;16.63;11.13;;;8.80;99.90;;;;;;5046444;28;20491;-69
2022/10/12 00:17:36;;;;;;;23.63;11.55;;;8.80;99.90;;;;;;5049992;28;20039;-70
2022/10/12 00:20:04;;;;;;;19.77;11.15;;;8.80;99.90;;;;;;5047365;28;20096;-72
2022/10/12 00:22:29;;;;;;;25.90;11.88;;;8.80;99.90;;;;;;5047080;28;20083;-69
2022/10/12 00:24:55;;;;;;;19.35;13.50;;;8.70;99.90;;;;;;5033682;28;20017;-69
2022/10/12 00:27:21;;;;;;;20.85;12.70;;;8.80;99.90;;;;;;5045943;28;20055;-69
2022/10/12 00:29:47;;;;;;;19.75;12.93;;;8.80;99.90;;;;;;5040034;28;20112;-69
2022/10/12 00:32:14;;;;;;;20.35;11.88;;;8.80;99.90;;;;;;5056887;28;20059;-69
2022/10/12 00:34:39;;;;;;;18.80;11.85;;;8.70;99.90;;;;;;5040244;28;20132;-70
2022/10/12 00:37:05;;;;;;;19.00;11.57;;;8.70;99.90;;;;;;5041919;28;20481;-70
2022/10/12 00:39:31;;;;;;;20.80;10.77;;;8.70;99.90;;;;;;5050515;28;20037;-69
2022/10/12 00:41:56;;;;;;;21.08;11.18;;;8.70;99.90;;;;;;5047718;28;20481;-69
2022/10/12 00:44:34;;;;;;;22.20;11.65;;;8.70;99.90;;;;;;5049707;28;20535;-69
2022/10/12 00:47:06;;;;;;;18.08;10.50;;;8.70;99.90;;;;;;5047323;28;20040;-69
2022/10/12 00:49:33;;;;;;;26.65;11.63;;;8.70;99.90;;;;;;5037903;28;20021;-73
2022/10/12 00:52:05;;;;;;;22.13;11.88;;;8.60;99.90;;;;;;5044546;28;20040;-69
2022/10/12 00:54:36;;;;;;;16.85;10.05;;;8.60;99.90;;;;;;5042532;28;20036;-69
2022/10/12 00:57:04;;;;;;;16.23;10.73;;;8.60;99.90;;;;;;5042333;28;20017;-70
2022/10/12 00:59:42;;;;;;;18.27;11.20;;;8.60;99.90;;;;;;5044099;28;20055;-69
2022/10/12 01:02:07;;;;;;;20.40;11.63;;;8.60;99.90;;;;;;5039791;28;20616;-69
2022/10/12 01:04:34;;;;;;;18.50;11.02;;;8.50;99.90;;;;;;5037250;28;20029;-69
2022/10/12 01:07:00;;;;;;;20.70;11.18;;;8.50;99.90;;;;;;5040232;28;20029;-69
2022/10/12 01:09:27;;;;;;;25.45;11.48;;;8.50;99.90;;;;;;5038980;28;20031;-69
2022/10/12 01:11:53;;;;;;;24.20;10.85;;;8.50;99.90;;;;;;5047735;28;20548;-69
2022/10/12 01:14:19;;;;;;;18.40;10.88;;;8.40;99.90;;;;;;5040075;28;20112;-69
2022/10/12 01:16:53;;;;;;;17.50;10.50;;;8.40;99.90;;;;;;5042012;28;20630;-69
2022/10/12 01:19:37;;;;;;;23.45;11.60;;;8.30;99.90;;;;;;5043481;28;20021;-69
2022/10/12 01:22:10;;;;;;;19.00;10.75;;;8.20;99.90;;;;;;5041346;28;20029;-70
2022/10/12 01:25:01;;;;;;;23.30;11.98;;;8.30;99.90;;;;;;5043436;28;20477;-69
2022/10/12 01:27:43;;;;;;;19.48;11.30;;;8.30;99.90;;;;;;5040117;28;20398;-69
2022/10/12 01:30:32;;;;;;;19.70;11.73;;;8.30;99.90;;;;;;5048287;28;20094;-69
2022/10/12 01:33:06;;;;;;;17.50;11.55;;;8.30;99.90;;;;;;5038794;28;20018;-69
2022/10/12 01:36:09;;;;;;;27.73;11.85;;;8.40;99.90;;;;;;5042991;28;20390;-69
2022/10/12 01:38:44;;;;;;;19.42;11.63;;;8.30;99.90;;;;;;5040951;28;20034;-70
2022/10/12 01:41:14;;;;;;;20.88;11.93;;;8.30;99.90;;;;;;5042022;28;20154;-69
2022/10/12 01:43:42;;;;;;;16.27;10.95;;;8.30;99.90;;;;;;5038765;28;20474;-69
2022/10/12 01:46:17;;;;;;;17.02;11.48;;;8.30;99.90;;;;;;5040206;28;20032;-70
2022/10/12 01:48:45;;;;;;;20.75;11.10;;;8.30;99.90;;;;;;5036251;28;20052;-69
2022/10/12 01:51:15;;;;;;;22.05;11.35;;;8.30;99.90;;;;;;5043266;28;20104;-69
2022/10/12 01:53:48;;;;;;;20.27;10.52;;;8.30;99.90;;;;;;5040290;28;20477;-69
2022/10/12 01:56:23;;;;;;;16.73;10.00;;;8.30;99.90;;;;;;5047985;28;20083;-69
2022/10/12 01:59:06;;;;;;;18.17;11.25;;;8.30;99.90;;;;;;5042338;28;20017;-70
2022/10/12 02:01:43;;;;;;;18.80;10.68;;;8.30;99.90;;;;;;5039605;28;20034;-69
2022/10/12 02:04:28;;;;;;;21.33;11.45;;;8.30;99.90;;;;;;5042540;28;20029;-69
2022/10/12 02:07:22;;;;;;;21.17;11.30;;;8.30;99.90;;;;;;5038560;28;20044;-69
2022/10/12 02:09:50;;;;;;;16.27;10.68;;;8.30;99.90;;;;;;5040886;28;20104;-69
2022/10/12 02:12:19;;;;;;;18.13;10.32;;;8.30;99.90;;;;;;5040487;28;20021;-69
2022/10/12 02:14:54;;;;;;;16.33;10.02;;;8.20;99.90;;;;;;5042404;28;20438;-69
2022/10/12 02:17:21;;;;;;;18.08;10.55;;;8.20;99.90;;;;;;5038675;28;20025;-69
2022/10/12 02:19:54;;;;;;;24.92;12.18;;;8.20;99.90;;;;;;5042191;28;20044;-69
2022/10/12 02:22:20;;;;;;;;;;;8.10;99.90;;;;;;5040495;28;20374;-70
2022/10/12 02:24:49;;;;;;;22.48;11.73;;;8.10;99.90;;;;;;5040733;28;19971;-69
2022/10/12 02:27:19;;;;;;;17.30;11.00;;;8.10;99.90;;;;;;5041098;28;20095;-69
2022/10/12 02:29:46;;;;;;;24.75;11.40;;;8.00;99.90;;;;;;5041960;28;20025;-69
2022/10/12 02:33:02;;;;;;;18.75;10.90;;;8.10;99.90;;;;;;5040801;28;20017;-69
2022/10/12 02:35:42;;;;;;;15.85;10.45;;;8.10;99.90;;;;;;5024525;28;20037;-69
2022/10/12 02:38:33;;;;;;;15.80;9.20;;;8.00;99.90;;;;;;5038613;28;20056;-69
2022/10/12 02:41:14;;;;;;;16.88;9.95;;;8.10;99.90;;;;;;5034430;28;20043;-69
2022/10/12 02:43:42;;;;;;;17.58;10.15;;;8.00;99.90;;;;;;5041323;28;20024;-69
2022/10/12 02:46:09;;;;;;;17.75;11.10;;;8.00;99.90;;;;;;5043189;28;20562;-69
2022/10/12 02:48:38;;;;;;;25.13;12.85;;;8.00;99.90;;;;;;5059200;28;20397;-69
2022/10/12 02:51:06;;;;;;;19.70;10.43;;;8.00;99.90;;;;;;5044186;28;20103;-70
2022/10/12 02:53:31;;;;;;;22.33;12.10;;;7.90;99.90;;;;;;5042031;28;20067;-69
2022/10/12 02:56:06;;;;;;;18.98;10.75;;;7.80;99.90;;;;;;5046851;28;20445;-69
2022/10/12 02:58:32;;;;;;;18.85;10.27;;;7.80;99.90;;;;;;5040865;28;20048;-69
2022/10/12 03:00:58;;;;;;;17.60;10.95;;;7.80;99.90;;;;;;5041713;28;20117;-69
2022/10/12 03:03:24;;;;;;;15.55;10.82;;;7.80;99.90;;;;;;5043066;28;20116;-69
2022/10/12 03:05:49;;;;;;;16.67;10.13;;;7.90;99.90;;;;;;5044566;28;20029;-69
2022/10/12 03:08:15;;;;;;;16.63;10.30;;;7.80;99.90;;;;;;5044172;28;20430;-69
2022/10/12 03:10:40;;;;;;;18.73;10.57;;;7.80;99.90;;;;;;5043520;28;20032;-69
2022/10/12 03:13:06;;;;;;;21.02;10.65;;;7.80;99.90;;;;;;5048652;28;20079;-69
2022/10/12 03:15:32;;;;;;;20.50;11.25;;;7.70;99.90;;;;;;5042165;28;20435;-69
2022/10/12 03:17:57;;;;;;;19.05;10.95;;;7.70;99.90;;;;;;5046504;28;20117;-69
2022/10/12 03:20:23;;;;;;;20.88;10.50;;;7.70;99.90;;;;;;5045632;28;20025;-69
2022/10/12 03:22:49;;;;;;;20.58;10.63;;;7.70;99.90;;;;;;5038590;28;20075;-68
2022/10/12 03:25:15;;;;;;;18.67;10.43;;;7.70;99.90;;;;;;5043050;28;20037;-69
2022/10/12 03:27:41;;;;;;;18.65;11.27;;;7.60;99.90;;;;;;5039414;28;20029;-68
2022/10/12 03:30:07;;;;;;;19.27;10.65;;;7.60;99.90;;;;;;5041697;28;20486;-68
2022/10/12 03:32:33;;;;;;;15.70;9.43;;;7.60;99.90;;;;;;5038940;28;20354;-68
2022/10/12 03:34:58;;;;;;;23.58;10.88;;;7.60;99.90;;;;;;5039983;28;20032;-69
2022/10/12 03:37:24;;;;;;;20.88;10.45;;;7.60;99.90;;;;;;5042071;28;20032;-69
2022/10/12 03:39:49;;;;;;;18.30;10.40;;;7.60;99.90;;;;;;5040523;28;20381;-68
2022/10/12 03:42:15;;;;;;;21.38;11.27;;;7.60;99.90;;;;;;5041644;28;20516;-69
2022/10/12 03:44:41;;;;;;;21.92;11.45;;;7.60;99.90;;;;;;5039994;28;20028;-69
2022/10/12 03:47:06;;;;;;;18.77;10.60;;;7.60;99.90;;;;;;5045716;28;20477;-68
2022/10/12 03:49:32;;;;;;;20.75;10.98;;;7.50;99.90;;;;;;5035699;28;20025;-68
2022/10/12 03:51:58;;;;;;;17.98;10.43;;;7.40;99.90;;;;;;5046730;28;20036;-69
2022/10/12 03:54:23;;;;;;;18.70;11.32;;;7.40;99.90;;;;;;5044839;28;20025;-68
2022/10/12 03:56:49;;;;;;;19.17;10.70;;;7.40;99.90;;;;;;5043956;28;20489;-68
2022/10/12 03:59:14;;;;;;;22.05;11.18;;;7.30;99.90;;;;;;5042086;28;20035;-68
2022/10/12 04:01:40;;;;;;;16.30;10.35;;;7.40;99.90;;;;;;5035327;28;20083;-68
2022/10/12 04:04:06;;;;;;;21.00;10.75;;;7.30;99.90;;;;;;5044821;28;20104;-68
2022/10/12 04:06:31;;;;;;;19.90;10.93;;;7.30;99.90;;;;;;5043139;28;20041;-68
2022/10/12 04:08:57;;;;;;;22.23;10.27;;;7.30;99.90;;;;;;5039944;28;20350;-68
2022/10/12 04:11:23;;;;;;;16.98;10.10;;;7.30;99.90;;;;;;5043344;28;20057;-69
2022/10/12 04:13:48;;;;;;;25.55;11.88;;;7.30;99.90;;;;;;5042976;28;20025;-68
2022/10/12 04:16:14;;;;;;;24.08;11.13;;;7.30;99.90;;;;;;5045192;28;20548;-68
2022/10/12 04:18:39;;;;;;;19.67;11.80;;;7.30;99.90;;;;;;5040690;28;20033;-68
2022/10/12 04:21:10;;;;;;;23.13;11.85;;;7.20;99.90;;;;;;5043757;28;20057;-68
2022/10/12 04:23:36;;;;;;;16.55;11.55;;;7.20;99.90;;;;;;5037228;28;20049;-68
2022/10/12 04:26:01;;;;;;;25.38;11.90;;;7.20;99.90;;;;;;5040457;28;20079;-68
2022/10/12 04:28:27;;;;;;;24.08;12.02;;;7.20;99.90;;;;;;5044487;28;20129;-68
2022/10/12 04:30:53;;;;;;;21.58;12.57;;;7.10;99.90;;;;;;5043812;28;20028;-69
2022/10/12 04:33:18;;;;;;;22.00;11.35;;;7.10;99.90;;;;;;5041607;28;20382;-68
2022/10/12 04:35:44;;;;;;;21.30;11.50;;;7.00;99.90;;;;;;5039755;28;20037;-68
2022/10/12 04:38:11;;;;;;;22.85;11.32;;;7.00;99.90;;;;;;5045299;28;20025;-68
2022/10/12 04:40:37;;;;;;;17.95;9.57;;;7.00;99.90;;;;;;5041610;28;20454;-68
2022/10/12 04:43:03;;;;;;;20.13;11.20;;;7.00;99.90;;;;;;5040287;28;20096;-69
2022/10/12 04:45:28;;;;;;;20.92;11.00;;;6.90;99.90;;;;;;5044476;28;20045;-68
2022/10/12 04:47:54;;;;;;;16.38;10.70;;;6.90;99.90;;;;;;5045891;28;20052;-68
2022/10/12 04:50:20;;;;;;;22.45;11.05;;;6.90;99.90;;;;;;5041834;28;20025;-68
2022/10/12 04:52:46;;;;;;;20.73;11.13;;;6.90;99.90;;;;;;5043461;28;20022;-68
2022/10/12 04:55:11;;;;;;;20.63;10.68;;;6.90;99.90;;;;;;5045530;28;20033;-68
2022/10/12 04:57:37;;;;;;;20.02;9.77;;;6.90;99.90;;;;;;5044134;28;20025;-68
2022/10/12 05:00:03;;;;;;;22.77;10.15;;;6.90;99.90;;;;;;5042773;28;20029;-68
2022/10/12 05:02:29;;;;;;;20.25;11.55;;;6.90;99.90;;;;;;5042151;28;20029;-68
2022/10/12 05:04:54;;;;;;;16.35;10.88;;;6.90;99.90;;;;;;5040395;28;20055;-68
2022/10/12 05:07:20;;;;;;;23.73;11.52;;;6.90;99.90;;;;;;5042500;28;20037;-68
2022/10/12 05:09:46;;;;;;;19.33;11.82;;;6.80;99.90;;;;;;5042333;28;20470;-68
2022/10/12 05:12:11;;;;;;;16.27;9.73;;;6.80;99.90;;;;;;5037649;28;20470;-68
2022/10/12 05:14:37;;;;;;;18.77;10.15;;;6.80;99.90;;;;;;5044617;28;20057;-68
2022/10/12 05:17:03;;;;;;;15.32;10.27;;;6.80;99.90;;;;;;5040068;28;20381;-68
2022/10/12 05:19:28;;;;;;;28.33;15.02;;;6.80;99.90;;;;;;5040196;28;20027;-68
2022/10/12 05:21:54;;;;;;;22.65;11.45;;;6.70;99.90;;;;;;5047776;28;20025;-68
2022/10/12 05:24:20;;;;;;;26.95;12.27;;;6.70;99.90;;;;;;5041625;28;20025;-68
2022/10/12 05:26:46;;;;;;;22.15;11.48;;;6.60;99.90;;;;;;5037641;28;20036;-68
2022/10/12 05:29:11;;;;;;;24.63;11.98;;;6.60;99.90;;;;;;5038959;28;20026;-68
2022/10/12 05:31:37;;;;;;;21.05;11.70;;;6.70;99.90;;;;;;5044311;28;20220;-68
2022/10/12 05:34:02;;;;;;;25.52;12.40;;;6.70;99.90;;;;;;5040991;28;20024;-68
2022/10/12 05:36:28;;;;;;;25.48;12.32;;;6.60;99.90;;;;;;5046765;28;20389;-68
2022/10/12 05:38:53;;;;;;;28.25;12.45;;;6.50;99.90;;;;;;5038110;28;20029;-67
2022/10/12 05:41:19;;;;;;;31.73;14.27;;;6.50;99.90;;;;;;5043352;28;20516;-68
2022/10/12 05:43:45;;;;;;;31.02;13.32;;;6.60;99.90;;;;;;5040545;28;20021;-68
2022/10/12 05:46:10;;;;;;;32.33;14.27;;;6.50;99.90;;;;;;5040427;28;20425;-68
2022/10/12 05:48:36;;;;;;;32.00;14.13;;;6.50;99.90;;;;;;5043054;28;20505;-68
2022/10/12 05:51:01;;;;;;;25.58;13.98;;;6.60;99.90;;;;;;5041939;28;20025;-68
2022/10/12 05:53:27;;;;;;;25.10;14.10;;;6.50;99.90;;;;;;5039001;28;20036;-68
2022/10/12 05:55:59;;;;;;;25.67;14.30;;;6.50;99.90;;;;;;5041051;28;20041;-68
2022/10/12 05:58:27;;;;;;;24.73;12.73;;;6.50;99.90;;;;;;5048104;28;20029;-71
2022/10/12 06:00:54;;;;;;;27.30;14.80;;;6.50;99.90;;;;;;5041078;28;20067;-67
2022/10/12 06:03:20;;;;;;;24.92;13.65;;;6.40;99.90;;;;;;5044417;28;20569;-67
2022/10/12 06:05:46;;;;;;;33.30;13.35;;;6.40;99.90;;;;;;5038994;28;20041;-68
2022/10/12 06:08:13;;;;;;;25.77;12.80;;;6.40;99.90;;;;;;5043746;28;20082;-68
2022/10/12 06:10:44;;;;;;;24.30;12.43;;;6.40;99.90;;;;;;5041064;28;20481;-67
2022/10/12 06:13:10;;;;;;;30.67;13.30;;;6.40;99.90;;;;;;5038659;28;20027;-68
2022/10/12 06:15:35;;;;;;;31.80;13.57;;;6.40;99.90;;;;;;5039260;28;20029;-69
2022/10/12 06:18:01;;;;;;;28.90;13.65;;;6.50;99.90;;;;;;5043122;28;20037;-68
2022/10/12 06:20:27;;;;;;;31.90;15.55;;;6.50;99.90;;;;;;5039346;28;20031;-67
2022/10/12 06:22:52;;;;;;;21.98;13.05;;;6.50;99.90;;;;;;5041750;28;20030;-68
2022/10/12 06:25:18;;;;;;;26.02;12.48;;;6.50;99.90;;;;;;5049560;28;20041;-68
2022/10/12 06:27:45;;;;;;;23.75;12.63;;;6.40;99.90;;;;;;5050750;28;20021;-68
2022/10/12 06:30:11;;;;;;;28.00;13.05;;;6.50;99.90;;;;;;5040291;28;20462;-67
2022/10/12 06:32:37;;;;;;;24.02;12.90;;;6.50;99.90;;;;;;5040311;28;20043;-68
2022/10/12 06:35:03;;;;;;;21.30;12.70;;;6.50;99.90;;;;;;5057982;28;20018;-68
2022/10/12 06:37:29;;;;;;;25.17;12.77;;;6.60;99.90;;;;;;5041683;28;20116;-68
2022/10/12 06:39:55;;;;;;;25.83;14.23;;;6.60;99.90;;;;;;5042107;28;20139;-68
2022/10/12 06:42:20;;;;;;;26.98;13.68;;;6.70;99.90;;;;;;5044194;28;20025;-68
2022/10/12 06:44:46;;;;;;;24.48;12.25;;;6.70;99.90;;;;;;5043001;28;20037;-67
2022/10/12 06:47:11;;;;;;;25.13;13.20;;;6.60;99.90;;;;;;5041006;28;20025;-68
2022/10/12 06:49:37;;;;;;;21.02;12.15;;;6.60;99.90;;;;;;5045193;28;20025;-68
2022/10/12 06:52:03;;;;;;;23.63;12.18;;;6.60;99.90;;;;;;5044029;28;20115;-68
2022/10/12 06:54:29;;;;;;;20.27;11.15;;;6.70;99.90;;;;;;5047052;28;20091;-68
2022/10/12 06:56:54;;;;;;;25.02;12.88;;;6.70;99.90;;;;;;5046648;28;20070;-68
2022/10/12 06:59:21;;;;;;;17.42;11.23;;;6.80;99.90;;;;;;5043515;28;20734;-68
2022/10/12 07:01:48;;;;;;;21.67;11.80;;;6.80;99.90;;;;;;5045414;28;20432;-68
2022/10/12 07:04:14;;;;;;;25.70;12.43;;;6.90;99.90;;;;;;5045874;28;20024;-68
2022/10/12 07:06:40;;;;;;;29.35;11.30;;;7.00;99.90;;;;;;5045639;28;20033;-68
2022/10/12 07:09:06;;;;;;;26.58;11.80;;;6.90;99.90;;;;;;5047150;28;20536;-68
2022/10/12 07:11:32;;;;;;;21.42;12.32;;;7.00;99.90;;;;;;5038978;28;20265;-68
2022/10/12 07:13:57;;;;;;;23.02;12.70;;;7.00;99.90;;;;;;5043613;28;20044;-68
2022/10/12 07:16:23;;;;;;;26.17;11.93;;;7.00;99.90;;;;;;5043554;28;20120;-68
2022/10/12 07:18:49;;;;;;;24.48;13.32;;;7.00;99.90;;;;;;5039150;28;20072;-68
2022/10/12 07:21:15;;;;;;;23.88;13.60;;;7.00;99.90;;;;;;5042987;28;20472;-68
2022/10/12 07:23:41;;;;;;;22.00;12.30;;;7.10;99.90;;;;;;5041531;28;20033;-68
2022/10/12 07:26:07;;;;;;;22.55;12.60;;;7.10;99.90;;;;;;5048747;28;20528;-68
2022/10/12 07:28:34;;;;;;;22.85;11.95;;;7.20;99.90;;;;;;5044982;28;20516;-68
2022/10/12 07:31:05;;;;;;;24.00;12.10;;;7.20;99.90;;;;;;5042428;28;20075;-68
2022/10/12 07:33:32;;;;;;;22.00;12.00;;;7.20;99.90;;;;;;5034619;28;20022;-70
2022/10/12 07:35:59;;;;;;;18.70;12.30;;;7.20;99.90;;;;;;5041744;28;20037;-68
2022/10/12 07:38:24;;;;;;;18.77;11.98;;;7.30;99.90;;;;;;5042192;28;20036;-68
2022/10/12 07:40:50;;;;;;;21.67;11.15;;;7.30;99.90;;;;;;5039684;28;20029;-68
2022/10/12 07:43:16;;;;;;;27.75;12.82;;;7.30;99.90;;;;;;5040791;28;20053;-68
2022/10/12 07:45:42;;;;;;;22.02;13.40;;;7.30;99.90;;;;;;5043479;28;20041;-67
2022/10/12 07:48:07;;;;;;;21.45;12.88;;;7.30;99.90;;;;;;5042735;28;20036;-69
2022/10/12 07:50:33;;;;;;;24.77;13.85;;;7.40;99.90;;;;;;5053244;28;20072;-68
2022/10/12 07:52:58;;;;;;;22.15;12.75;;;7.40;99.90;;;;;;5035366;28;20025;-68
2022/10/12 07:55:24;;;;;;;24.85;14.65;;;7.50;99.90;;;;;;5036509;28;20087;-68
2022/10/12 07:57:50;;;;;;;24.35;13.75;;;7.50;99.90;;;;;;5039303;28;20105;-68
2022/10/12 08:00:15;;;;;;;27.10;15.55;;;7.60;99.90;;;;;;5041633;28;20025;-68
2022/10/12 08:02:41;;;;;;;28.73;15.57;;;7.60;99.90;;;;;;5043845;28;20103;-68
2022/10/12 08:05:07;;;;;;;31.30;16.50;;;7.70;99.90;;;;;;5039340;28;20021;-69
2022/10/12 08:07:33;;;;;;;26.67;16.75;;;7.70;99.90;;;;;;5038689;28;20094;-68
2022/10/12 08:09:58;;;;;;;27.88;15.70;;;7.80;99.90;;;;;;5036718;28;20104;-68
2022/10/12 08:12:24;;;;;;;29.23;17.52;;;7.90;99.90;;;;;;5037299;28;20071;-68
2022/10/12 08:14:50;;;;;;;31.63;18.80;;;8.00;99.90;;;;;;4998552;28;1246201;-68
2022/10/12 08:17:15;;;;;;;27.05;17.20;;;8.00;99.90;;;;;;5043753;28;20037;-68
2022/10/12 08:19:41;;;;;;;33.58;19.20;;;8.00;99.90;;;;;;5039091;28;20032;-68
2022/10/12 08:22:06;;;;;;;40.47;22.48;;;8.10;99.90;;;;;;5042964;28;20032;-68
2022/10/12 08:24:34;;;;;;;42.60;21.38;;;8.20;99.90;;;;;;5038067;28;20484;-68
2022/10/12 08:26:59;;;;;;;31.80;17.65;;;8.30;99.90;;;;;;5042744;28;20032;-68
2022/10/12 08:29:25;;;;;;;29.70;17.15;;;8.30;99.90;;;;;;5041038;28;20030;-68
2022/10/12 08:31:51;;;;;;;35.95;20.35;;;8.40;99.90;;;;;;5044161;28;20484;-68
2022/10/12 08:34:17;;;;;;;35.05;19.08;;;8.60;99.90;;;;;;5042905;28;20610;-68
2022/10/12 08:36:42;;;;;;;36.15;16.60;;;8.70;99.90;;;;;;5045189;28;20078;-68
2022/10/12 08:39:08;;;;;;;39.58;18.38;;;8.80;99.90;;;;;;5040506;28;20053;-68
2022/10/12 08:41:54;;;;;;;27.75;15.43;;;9.00;99.90;;;;;;5041847;28;20393;-69
2022/10/12 08:44:31;;;;;;;34.08;17.73;;;9.10;99.90;;;;;;5039573;28;20017;-70
2022/10/12 08:47:03;;;;;;;39.95;17.13;;;9.30;99.90;;;;;;5041838;28;20120;-68
2022/10/12 08:49:31;;;;;;;31.70;15.85;;;9.50;99.90;;;;;;5040609;28;20120;-72
2022/10/12 08:52:00;;;;;;;35.28;16.38;;;9.60;99.90;;;;;;5044594;28;20017;-68
2022/10/12 08:54:35;;;;;;;29.95;16.27;;;9.70;99.90;;;;;;5045208;28;20059;-69
2022/10/12 08:57:00;;;;;;;29.67;15.82;;;9.80;99.90;;;;;;5041021;28;20017;-69
2022/10/12 08:59:27;;;;;;;33.00;14.80;;;10.00;99.90;;;;;;5048026;28;20096;-69
2022/10/12 09:02:23;;;;;;;29.27;14.23;;;10.10;99.90;;;;;;5041603;28;20024;-69
2022/10/12 09:05:05;;;;;;;27.42;14.27;;;10.20;99.90;;;;;;5043593;28;20539;-68
2022/10/12 09:07:52;;;;;;;29.77;14.38;;;10.30;99.90;;;;;;5044731;28;20021;-68
2022/10/12 09:10:52;;;;;;;27.38;14.27;;;10.50;99.90;;;;;;5038158;28;20056;-69
2022/10/12 09:13:38;;;;;;;27.45;14.35;;;10.60;99.90;;;;;;5046143;28;20021;-69
2022/10/12 09:16:22;;;;;;;23.38;12.75;;;10.80;99.90;;;;;;5017339;28;20099;-68
2022/10/12 09:18:56;;;;;;;24.70;11.95;;;11.00;99.90;;;;;;5041194;28;20037;-68
2022/10/12 09:21:25;;;;;;;26.88;13.95;;;11.20;99.90;;;;;;5057239;28;20021;-68
2022/10/12 09:23:53;;;;;;;27.27;13.20;;;11.30;99.90;;;;;;5042734;28;20045;-69
2022/10/12 09:26:28;;;;;;;26.80;13.25;;;11.50;99.90;;;;;;5037975;28;20038;-69
2022/10/12 09:28:55;;;;;;;25.63;11.77;;;11.60;99.90;;;;;;5036888;28;20083;-69
2022/10/12 09:31:55;;;;;;;29.83;13.45;;;11.90;99.90;;;;;;5046979;28;20029;-69
2022/10/12 09:34:23;;;;;;;25.77;11.73;;;11.90;99.90;;;;;;5041694;28;20029;-69
2022/10/12 09:36:49;;;;;;;25.25;10.35;;;12.00;99.90;;;;;;5039431;28;20053;-68
2022/10/12 09:39:18;;;;;;;22.95;9.50;;;12.10;99.90;;;;;;5038153;28;20034;-68
2022/10/12 09:41:46;;;;;;;23.20;10.65;;;12.30;99.90;;;;;;5037924;28;20373;-68
2022/10/12 09:44:33;;;;;;;14.90;8.43;;;12.50;99.90;;;;;;5041573;28;20032;-69
2022/10/12 09:47:05;;;;;;;18.67;8.50;;;12.60;99.90;;;;;;5039649;28;20028;-69
2022/10/12 09:49:51;;;;;;;18.77;9.30;;;12.80;99.90;;;;;;5037247;28;20046;-68
2022/10/12 09:52:24;;;;;;;19.02;8.45;;;12.90;99.90;;;;;;5043458;28;20030;-69
2022/10/12 09:54:53;;;;;;;25.48;10.57;;;13.00;99.90;;;;;;5045159;28;20108;-69
2022/10/12 09:57:36;;;;;;;16.30;8.57;;;13.20;99.90;;;;;;5038080;28;20068;-69
2022/10/12 10:00:28;;;;;;;21.83;9.13;;;13.30;99.90;;;;;;5041501;28;20521;-69
2022/10/12 10:02:54;;;;;;;17.17;8.15;;;13.40;99.90;;;;;;5043952;28;20025;-69
2022/10/12 10:05:32;;;;;;;19.10;9.48;;;13.40;99.90;;;;;;5037640;28;20091;-69
2022/10/12 10:08:17;;;;;;;25.40;9.25;;;13.60;99.90;;;;;;5041917;28;20036;-69
2022/10/12 10:10:51;;;;;;;22.08;8.32;;;13.70;99.90;;;;;;5041302;28;20520;-70
2022/10/12 10:13:18;;;;;;;19.38;8.07;;;13.90;99.90;;;;;;5038177;28;20048;-69
2022/10/12 10:15:48;;;;;;;15.48;6.93;;;13.90;99.90;;;;;;5041495;28;20029;-69
2022/10/12 10:18:23;;;;;;;20.08;8.77;;;14.00;99.90;;;;;;5047856;28;20032;-69
2022/10/12 10:20:52;;;;;;;17.30;8.52;;;14.10;99.90;;;;;;5036410;28;20025;-69
2022/10/12 10:23:30;;;;;;;19.52;7.80;;;14.20;99.90;;;;;;5037335;28;20017;-69
2022/10/12 10:26:11;;;;;;;20.08;8.18;;;14.30;99.90;;;;;;5040000;28;20038;-68
2022/10/12 10:28:39;;;;;;;22.27;7.50;;;14.50;99.90;;;;;;5046283;28;20025;-69
2022/10/12 10:31:28;;;;;;;15.70;6.97;;;14.50;99.90;;;;;;5038511;28;20034;-69
2022/10/12 10:34:11;;;;;;;18.20;8.93;;;14.70;99.90;;;;;;5041534;28;20064;-68
2022/10/12 10:36:44;;;;;;;21.67;8.10;;;14.70;99.90;;;;;;5045393;28;20021;-69
2022/10/12 10:39:26;;;;;;;19.55;7.97;;;14.70;99.90;;;;;;5040326;28;20147;-69
2022/10/12 10:41:54;;;;;;;16.77;8.45;;;14.80;99.90;;;;;;5037781;28;20048;-69
2022/10/12 10:44:32;;;;;;;14.40;7.32;;;14.90;99.90;;;;;;5039503;28;20480;-68
2022/10/12 10:47:06;;;;;;;22.77;7.55;;;15.10;99.90;;;;;;5038113;28;20429;-68
2022/10/12 10:49:35;;;;;;;18.73;8.15;;;15.20;99.90;;;;;;5040952;28;20426;-69
2022/10/12 10:52:01;;;;;;;24.25;9.15;;;15.00;99.90;;;;;;5040065;28;20116;-69
2022/10/12 10:54:33;;;;;;;20.42;7.47;;;14.90;99.90;;;;;;5038899;28;20020;-69
2022/10/12 10:57:03;;;;;;;15.90;7.78;;;14.90;99.90;;;;;;5043078;28;20040;-69
2022/10/12 10:59:51;;;;;;;17.48;7.00;;;15.00;99.90;;;;;;5041260;28;20017;-69
2022/10/12 11:02:41;;;;;;;11.27;5.82;;;15.30;99.90;;;;;;5044939;28;20018;-69
2022/10/12 11:05:30;;;;;;;77.75;10.35;;;15.30;99.90;;;;;;5045146;28;20068;-69
2022/10/12 11:08:01;;;;;;;28.33;7.30;;;15.40;99.90;;;;;;5041671;28;20021;-69
2022/10/12 11:10:50;;;;;;;16.42;6.70;;;15.60;99.90;;;;;;5040549;28;20034;-69
2022/10/12 11:13:28;;;;;;;16.80;5.65;;;15.60;99.90;;;;;;5046097;28;20276;-69
2022/10/12 11:16:00;;;;;;;12.32;5.07;;;15.70;99.90;;;;;;5045859;28;20029;-69
2022/10/12 11:18:45;;;;;;;11.20;5.70;;;15.70;99.90;;;;;;5047984;28;20025;-69
2022/10/12 11:21:23;;;;;;;14.20;5.93;;;15.60;99.90;;;;;;5038410;28;20078;-69
2022/10/12 11:24:12;;;;;;;14.15;5.38;;;15.70;99.90;;;;;;5046325;28;20729;-69
2022/10/12 11:26:50;;;;;;;22.15;5.50;;;16.00;99.90;;;;;;5044565;28;20477;-70
2022/10/12 11:29:16;;;;;;;14.65;5.95;;;16.10;99.90;;;;;;5045256;28;20363;-70
2022/10/12 11:31:52;;;;;;;10.73;4.07;;;16.10;99.90;;;;;;5044328;28;20538;-70
2022/10/12 11:34:21;;;;;;;12.15;4.88;;;15.90;99.90;;;;;;5038515;28;20029;-70
2022/10/12 11:36:49;;;;;;;10.15;4.13;;;15.80;99.90;;;;;;5041202;28;20026;-69
2022/10/12 11:39:33;;;;;;;11.23;4.22;;;15.80;99.90;;;;;;5040419;28;20021;-69
2022/10/12 11:42:01;;;;;;;17.10;4.38;;;16.00;99.90;;;;;;5048827;28;20017;-69
2022/10/12 11:44:44;;;;;;;9.90;4.00;;;16.10;99.90;;;;;;5044368;28;20382;-70
2022/10/12 11:47:15;;;;;;;14.70;3.58;;;16.30;99.90;;;;;;5038817;28;20386;-70
2022/10/12 11:49:51;;;;;;;10.52;3.10;;;16.60;99.90;;;;;;5043659;28;20040;-70
2022/10/12 11:52:18;;;;;;;11.15;3.40;;;16.30;99.90;;;;;;5044602;28;20029;-69
2022/10/12 11:54:43;;;;;;;10.65;3.35;;;16.30;99.90;;;;;;5042880;28;20032;-69
2022/10/12 11:57:16;;;;;;;13.90;3.53;;;16.40;99.90;;;;;;5045167;28;20029;-70
2022/10/12 11:59:54;;;;;;;12.65;3.15;;;16.40;99.90;;;;;;5037719;28;20029;-70
2022/10/12 12:02:36;;;;;;;7.55;2.83;;;16.40;99.90;;;;;;5044504;28;20013;-69
2022/10/12 12:05:04;;;;;;;14.20;3.10;;;16.40;99.90;;;;;;5044335;28;20037;-69
2022/10/12 12:07:42;;;;;;;7.32;2.92;;;16.50;99.90;;;;;;5044261;28;20021;-69
2022/10/12 12:10:36;;;;;;;11.75;3.47;;;16.70;99.90;;;;;;5046449;28;20018;-69
2022/10/12 12:13:13;;;;;;;11.00;3.60;;;16.80;99.90;;;;;;5042135;28;20547;-70
2022/10/12 12:16:02;;;;;;;11.90;3.42;;;16.70;99.90;;;;;;5040489;28;20043;-70
2022/10/12 12:18:32;;;;;;;9.25;3.33;;;16.80;99.90;;;;;;5045042;28;20481;-69
2022/10/12 12:21:08;;;;;;;5.75;2.53;;;16.90;99.90;;;;;;5045494;28;20029;-70
2022/10/12 12:23:51;;;;;;;7.47;2.40;;;16.70;99.90;;;;;;5042251;28;20036;-70
2022/10/12 12:26:19;;;;;;;10.93;3.42;;;16.70;99.90;;;;;;5045548;28;20027;-70
2022/10/12 12:29:08;;;;;;;8.52;3.63;;;16.60;99.90;;;;;;5044432;28;20044;-70
2022/10/12 12:31:35;;;;;;;5.70;2.60;;;16.50;99.90;;;;;;5046673;28;20029;-70
2022/10/12 12:34:11;;;;;;;7.30;2.60;;;16.50;99.90;;;;;;5043337;28;20021;-69
2022/10/12 12:36:39;;;;;;;10.35;2.97;;;16.60;99.90;;;;;;5047559;28;20025;-70
2022/10/12 12:39:19;;;;;;;7.28;3.22;;;16.60;99.90;;;;;;5038479;28;20485;-70
2022/10/12 12:41:47;;;;;;;8.48;3.13;;;16.60;99.90;;;;;;5042552;28;20029;-70
2022/10/12 12:44:39;;;;;;;10.18;2.85;;;16.50;99.90;;;;;;5045639;28;20040;-69
2022/10/12 12:47:08;;;;;;;7.60;2.78;;;16.60;99.90;;;;;;5043405;28;20034;-70
2022/10/12 12:49:41;;;;;;;7.32;2.55;;;16.60;99.90;;;;;;5041495;28;20029;-70
2022/10/12 12:52:27;;;;;;;6.78;2.95;;;16.60;99.90;;;;;;5047030;28;20430;-69
2022/10/12 12:55:20;;;;;;;11.13;3.35;;;16.60;99.90;;;;;;5043782;28;20029;-70